createdAt,value
2018-11-07T00:00:05.882Z,10.50
2018-11-07T00:02:33.973Z,10.40
2018-11-07T00:05:02.014Z,10.40
2018-11-07T00:07:30.116Z,10.30
2018-11-07T00:09:58.171Z,10.30
2018-11-07T00:12:26.319Z,10.40
2018-11-07T00:14:54.394Z,10.30
2018-11-07T00:17:22.442Z,10.30
2018-11-07T00:19:50.485Z,10.30
2018-11-07T00:22:18.554Z,10.30
2018-11-07T00:24:46.603Z,10.30
2018-11-07T00:27:14.670Z,10.20
2018-11-07T00:29:42.730Z,10.30
2018-11-07T00:32:11.174Z,10.30
2018-11-07T00:34:39.233Z,10.20
2018-11-07T00:37:07.291Z,10.20
2018-11-07T00:39:35.344Z,10.20
2018-11-07T00:42:03.453Z,10.20
2018-11-07T00:44:31.518Z,10.20
2018-11-07T00:46:59.560Z,10.10
2018-11-07T00:49:27.618Z,10.10
2018-11-07T00:51:55.662Z,10.10
2018-11-07T00:54:23.938Z,10.10
2018-11-07T00:56:52.059Z,10.00
2018-11-07T00:59:20.130Z,10.00
2018-11-07T01:01:48.206Z,10.00
2018-11-07T01:04:16.268Z,10.00
2018-11-07T01:06:44.530Z,10.10
2018-11-07T01:09:13.763Z,10.10
2018-11-07T01:11:42.781Z,10.00
2018-11-07T01:14:11.062Z,10.10
2018-11-07T01:16:39.346Z,10.00
2018-11-07T01:19:07.805Z,10.10
2018-11-07T01:21:36.034Z,10.10
2018-11-07T01:24:04.282Z,10.10
2018-11-07T01:26:32.344Z,10.10
2018-11-07T01:29:00.408Z,10.00
2018-11-07T01:31:28.534Z,10.00
2018-11-07T01:33:56.577Z,10.00
2018-11-07T01:36:24.634Z,9.90
2018-11-07T01:38:52.695Z,10.10
2018-11-07T01:41:20.858Z,10.00
2018-11-07T01:43:48.930Z,10.00
2018-11-07T01:46:16.985Z,9.90
2018-11-07T01:48:45.036Z,9.90
2018-11-07T01:51:13.090Z,9.90
2018-11-07T01:53:41.136Z,9.90
2018-11-07T01:56:09.196Z,9.80
2018-11-07T01:58:37.252Z,9.80
2018-11-07T02:01:05.760Z,9.80
2018-11-07T02:03:33.829Z,9.80
2018-11-07T02:06:01.886Z,9.80
2018-11-07T02:08:31.417Z,9.80
2018-11-07T02:11:00.270Z,9.70
2018-11-07T02:13:28.304Z,9.70
2018-11-07T02:15:56.366Z,9.80
2018-11-07T02:18:24.452Z,9.70
2018-11-07T02:20:52.530Z,9.70
2018-11-07T02:23:20.742Z,9.70
2018-11-07T02:25:49.015Z,9.70
2018-11-07T02:28:17.093Z,9.80
2018-11-07T02:30:45.142Z,9.80
2018-11-07T02:33:13.199Z,9.80
2018-11-07T02:35:41.253Z,9.90
2018-11-07T02:38:09.894Z,9.80
2018-11-07T02:40:37.957Z,9.70
2018-11-07T02:43:06.011Z,9.70
2018-11-07T02:45:34.081Z,9.70
2018-11-07T02:48:02.126Z,9.70
2018-11-07T02:50:30.183Z,9.60
2018-11-07T02:52:58.247Z,9.70
2018-11-07T02:55:26.359Z,9.70
2018-11-07T02:57:54.394Z,9.60
2018-11-07T03:00:22.487Z,9.60
2018-11-07T03:02:50.527Z,9.60
2018-11-07T03:05:18.598Z,9.50
2018-11-07T03:07:46.642Z,9.50
2018-11-07T03:10:14.721Z,9.50
2018-11-07T03:12:42.752Z,9.50
2018-11-07T03:15:10.935Z,9.50
2018-11-07T03:17:39.041Z,9.50
2018-11-07T03:20:08.706Z,9.50
2018-11-07T03:22:36.841Z,9.50
2018-11-07T03:25:05.038Z,9.40
2018-11-07T03:27:33.089Z,9.40
2018-11-07T03:30:01.134Z,9.40
2018-11-07T03:32:29.173Z,9.40
2018-11-07T03:34:57.453Z,9.40
2018-11-07T03:37:25.484Z,9.30
2018-11-07T03:39:53.614Z,9.40
2018-11-07T03:42:21.598Z,9.30
2018-11-07T03:44:49.666Z,9.30
2018-11-07T03:47:17.714Z,9.20
2018-11-07T03:49:45.766Z,9.20
2018-11-07T03:52:13.818Z,9.20
2018-11-07T03:54:41.864Z,9.20
2018-11-07T03:57:09.925Z,9.20
2018-11-07T03:59:37.971Z,9.20
2018-11-07T04:02:06.970Z,9.20
2018-11-07T04:04:35.028Z,9.20
2018-11-07T04:07:03.113Z,9.20
2018-11-07T04:09:31.157Z,9.10
2018-11-07T04:11:59.215Z,9.10
2018-11-07T04:14:27.278Z,9.10
2018-11-07T04:16:55.347Z,9.00
2018-11-07T04:19:23.378Z,9.00
2018-11-07T04:21:51.438Z,8.90
2018-11-07T04:24:19.470Z,8.90
2018-11-07T04:26:47.525Z,8.90
2018-11-07T04:29:15.608Z,8.90
2018-11-07T04:31:43.669Z,9.00
2018-11-07T04:34:11.726Z,9.00
2018-11-07T04:36:39.796Z,9.10
2018-11-07T04:39:09.131Z,9.10
2018-11-07T04:41:37.178Z,9.10
2018-11-07T04:44:05.546Z,9.10
2018-11-07T04:46:33.633Z,9.10
2018-11-07T04:49:01.740Z,9.10
2018-11-07T04:51:29.773Z,9.10
2018-11-07T04:53:57.842Z,9.10
2018-11-07T04:56:25.886Z,9.10
2018-11-07T04:58:53.964Z,9.10
2018-11-07T05:01:22.002Z,9.10
2018-11-07T05:03:50.087Z,9.10
2018-11-07T05:06:18.138Z,9.10
2018-11-07T05:08:46.284Z,9.10
2018-11-07T05:11:14.313Z,9.10
2018-11-07T05:13:42.374Z,9.20
2018-11-07T05:16:10.450Z,9.10
2018-11-07T05:18:38.509Z,9.10
2018-11-07T05:21:06.704Z,9.00
2018-11-07T05:23:34.738Z,9.00
2018-11-07T05:26:02.818Z,9.10
2018-11-07T05:28:30.843Z,9.00
2018-11-07T05:30:58.878Z,9.00
2018-11-07T05:33:26.939Z,9.00
2018-11-07T05:35:54.976Z,9.00
2018-11-07T05:38:23.033Z,9.00
2018-11-07T05:40:51.109Z,9.00
2018-11-07T05:43:19.184Z,8.90
2018-11-07T05:45:47.227Z,8.90
2018-11-07T05:48:15.310Z,8.80
2018-11-07T05:50:43.359Z,8.90
2018-11-07T05:53:11.495Z,8.90
2018-11-07T05:55:39.533Z,8.80
2018-11-07T05:58:07.590Z,8.80
2018-11-07T06:00:35.640Z,8.70
2018-11-07T06:03:03.698Z,8.70
2018-11-07T06:05:31.858Z,8.70
2018-11-07T06:07:59.925Z,8.60
2018-11-07T06:10:27.970Z,8.60
2018-11-07T06:12:56.077Z,8.70
2018-11-07T06:15:24.130Z,8.60
2018-11-07T06:17:52.173Z,8.70
2018-11-07T06:20:20.233Z,8.70
2018-11-07T06:22:48.278Z,8.70
2018-11-07T06:25:16.359Z,8.70
2018-11-07T06:27:44.405Z,8.60
2018-11-07T06:30:13.233Z,8.60
2018-11-07T06:32:41.712Z,8.60
2018-11-07T06:35:10.402Z,8.70
2018-11-07T06:37:38.570Z,8.60
2018-11-07T06:40:08.394Z,8.60
2018-11-07T06:42:36.581Z,8.60
2018-11-07T06:45:04.713Z,8.60
2018-11-07T06:47:33.007Z,8.60
2018-11-07T06:50:01.072Z,8.50
2018-11-07T06:52:29.127Z,8.60
2018-11-07T06:54:57.186Z,8.50
2018-11-07T06:57:26.074Z,8.50
2018-11-07T06:59:54.231Z,8.50
2018-11-07T07:02:22.287Z,8.40
2018-11-07T07:04:50.336Z,8.50
2018-11-07T07:07:18.470Z,8.60
2018-11-07T07:09:46.510Z,8.50
2018-11-07T07:12:14.570Z,8.50
2018-11-07T07:14:42.626Z,8.50
2018-11-07T07:17:10.677Z,8.50
2018-11-07T07:19:38.722Z,8.40
2018-11-07T07:22:06.803Z,8.30
2018-11-07T07:24:34.847Z,8.30
2018-11-07T07:27:02.898Z,8.40
2018-11-07T07:29:30.967Z,8.40
2018-11-07T07:31:59.011Z,8.50
2018-11-07T07:34:27.042Z,8.40
2018-11-07T07:36:55.106Z,8.40
2018-11-07T07:39:23.178Z,8.40
2018-11-07T07:41:51.230Z,8.40
2018-11-07T07:44:19.261Z,8.50
2018-11-07T07:46:47.305Z,8.50
2018-11-07T07:49:15.458Z,8.60
2018-11-07T07:51:43.421Z,8.50
2018-11-07T07:54:11.483Z,8.50
2018-11-07T07:56:39.526Z,8.60
2018-11-07T07:59:07.587Z,8.70
2018-11-07T08:01:35.641Z,8.70
2018-11-07T08:04:03.741Z,8.60
2018-11-07T08:06:34.774Z,8.70
2018-11-07T08:09:02.846Z,8.70
2018-11-07T08:11:30.905Z,8.70
2018-11-07T08:13:59.004Z,8.70
2018-11-07T08:16:27.012Z,8.70
2018-11-07T08:18:55.050Z,8.70
2018-11-07T08:21:23.164Z,8.70
2018-11-07T08:23:51.349Z,8.70
2018-11-07T08:26:19.396Z,8.70
2018-11-07T08:28:47.439Z,8.80
2018-11-07T08:31:15.557Z,8.80
2018-11-07T08:33:43.614Z,8.90
2018-11-07T08:36:11.669Z,8.90
2018-11-07T08:38:39.739Z,8.90
2018-11-07T08:41:07.808Z,8.90
2018-11-07T08:43:36.026Z,8.90
2018-11-07T08:46:04.093Z,9.00
2018-11-07T08:48:32.170Z,9.00
2018-11-07T08:51:00.205Z,9.00
2018-11-07T08:53:28.250Z,9.00
2018-11-07T08:55:56.286Z,9.00
2018-11-07T08:58:24.765Z,9.10
2018-11-07T09:00:52.829Z,9.10
2018-11-07T09:03:20.865Z,9.20
2018-11-07T09:05:48.928Z,9.30
2018-11-07T09:08:16.985Z,9.50
2018-11-07T09:10:46.062Z,9.50
2018-11-07T09:13:14.119Z,9.50
2018-11-07T09:15:42.166Z,9.60
2018-11-07T09:18:10.214Z,9.70
2018-11-07T09:20:38.252Z,9.80
2018-11-07T09:23:06.294Z,9.80
2018-11-07T09:25:34.330Z,9.90
2018-11-07T09:28:02.420Z,9.80
2018-11-07T09:30:30.468Z,9.80
2018-11-07T09:32:58.514Z,9.90
2018-11-07T09:35:26.578Z,10.00
2018-11-07T09:37:54.626Z,10.10
2018-11-07T09:40:22.690Z,10.20
2018-11-07T09:42:51.059Z,10.30
2018-11-07T09:45:20.368Z,10.30
2018-11-07T09:47:48.729Z,10.40
2018-11-07T09:50:17.541Z,10.50
2018-11-07T09:52:46.101Z,10.60
2018-11-07T09:55:16.221Z,10.70
2018-11-07T09:57:44.382Z,10.70
2018-11-07T10:00:14.319Z,10.80
2018-11-07T10:02:42.744Z,10.80
2018-11-07T10:05:11.374Z,10.80
2018-11-07T10:07:40.262Z,10.90
2018-11-07T10:10:10.382Z,10.80
2018-11-07T10:12:38.921Z,10.80
2018-11-07T10:15:07.546Z,10.80
2018-11-07T10:17:35.718Z,10.90
2018-11-07T10:20:05.614Z,11.00
2018-11-07T10:22:33.681Z,11.10
2018-11-07T10:25:01.759Z,11.20
2018-11-07T10:27:30.088Z,11.20
2018-11-07T10:29:59.047Z,11.10
2018-11-07T10:32:26.850Z,11.10
2018-11-07T10:34:54.894Z,11.20
2018-11-07T10:37:32.257Z,11.30
2018-11-07T10:39:51.064Z,11.40
2018-11-07T10:42:19.030Z,11.40
2018-11-07T10:44:47.998Z,11.40
2018-11-07T10:47:16.051Z,11.50
2018-11-07T10:49:44.134Z,11.60
2018-11-07T10:52:12.193Z,11.60
2018-11-07T10:54:40.239Z,11.60
2018-11-07T10:57:08.297Z,11.70
2018-11-07T10:59:36.349Z,11.80
2018-11-07T11:02:10.110Z,11.90
2018-11-07T11:04:38.175Z,12.00
2018-11-07T11:07:06.239Z,12.10
2018-11-07T11:09:34.358Z,12.10
2018-11-07T11:12:02.414Z,12.20
2018-11-07T11:14:30.465Z,12.20
2018-11-07T11:16:58.573Z,12.20
2018-11-07T11:19:26.560Z,12.30
2018-11-07T11:21:54.615Z,12.30
2018-11-07T11:24:22.662Z,12.30
2018-11-07T11:26:50.719Z,12.30
2018-11-07T11:29:18.787Z,12.30
2018-11-07T11:31:46.854Z,12.30
2018-11-07T11:34:15.033Z,12.30
2018-11-07T11:36:43.196Z,12.40
2018-11-07T11:39:12.499Z,12.40
2018-11-07T11:41:41.290Z,12.40
2018-11-07T11:44:09.342Z,12.50
2018-11-07T11:46:37.423Z,12.60
2018-11-07T11:49:05.732Z,12.70
2018-11-07T11:51:34.081Z,12.80
2018-11-07T11:54:02.144Z,12.90
2018-11-07T11:56:30.183Z,13.00
2018-11-07T11:58:58.764Z,13.10
2018-11-07T12:01:26.774Z,13.20
2018-11-07T12:03:54.865Z,13.20
2018-11-07T12:06:22.955Z,13.30
2018-11-07T12:08:51.017Z,13.30
2018-11-07T12:11:19.204Z,13.30
2018-11-07T12:13:47.253Z,13.40
2018-11-07T12:16:15.358Z,13.50
2018-11-07T12:18:43.401Z,13.50
2018-11-07T12:21:11.517Z,13.50
2018-11-07T12:23:39.531Z,13.60
2018-11-07T12:26:07.579Z,13.60
2018-11-07T12:28:35.706Z,13.70
2018-11-07T12:31:03.890Z,13.70
2018-11-07T12:33:31.954Z,13.70
2018-11-07T12:36:00.047Z,13.70
2018-11-07T12:38:28.113Z,13.80
2018-11-07T12:40:56.158Z,13.90
2018-11-07T12:43:24.210Z,13.90
2018-11-07T12:45:52.282Z,13.90
2018-11-07T12:48:20.334Z,13.90
2018-11-07T12:50:48.385Z,14.00
2018-11-07T12:53:16.439Z,14.10
2018-11-07T12:55:44.514Z,14.10
2018-11-07T12:58:12.664Z,14.20
2018-11-07T13:00:40.698Z,14.10
2018-11-07T13:03:08.753Z,14.20
2018-11-07T13:05:37.224Z,14.20
2018-11-07T13:08:05.531Z,14.20
2018-11-07T13:10:33.727Z,14.30
2018-11-07T13:13:01.773Z,14.30
2018-11-07T13:15:29.829Z,14.30
2018-11-07T13:17:57.871Z,14.30
2018-11-07T13:20:26.485Z,14.30
2018-11-07T13:22:55.161Z,14.30
2018-11-07T13:25:23.854Z,14.40
2018-11-07T13:27:51.965Z,14.50
2018-11-07T13:30:21.023Z,14.50
2018-11-07T13:32:49.094Z,14.60
2018-11-07T13:35:17.898Z,14.60
2018-11-07T13:37:46.813Z,14.60
2018-11-07T13:40:17.394Z,14.60
2018-11-07T13:42:45.477Z,14.60
2018-11-07T13:45:15.734Z,14.60
2018-11-07T13:47:44.815Z,14.70
2018-11-07T13:50:13.461Z,14.60
2018-11-07T13:52:41.637Z,14.60
2018-11-07T13:55:10.533Z,14.60
2018-11-07T13:57:39.042Z,14.60
2018-11-07T14:00:16.295Z,14.60
2018-11-07T14:02:44.892Z,14.70
2018-11-07T14:05:13.187Z,14.60
2018-11-07T14:07:41.235Z,14.60
2018-11-07T14:10:11.229Z,14.60
2018-11-07T14:12:39.522Z,14.60
2018-11-07T14:15:09.225Z,14.60
2018-11-07T14:17:37.330Z,14.60
2018-11-07T14:20:05.952Z,14.60
2018-11-07T14:22:34.044Z,14.60
2018-11-07T14:25:02.226Z,14.60
2018-11-07T14:27:30.318Z,14.60
2018-11-07T14:29:59.202Z,14.60
2018-11-07T14:32:28.299Z,14.60
2018-11-07T14:34:56.349Z,14.50
2018-11-07T14:37:24.389Z,14.50
2018-11-07T14:39:52.462Z,14.50
2018-11-07T14:42:20.507Z,14.50
2018-11-07T14:44:48.586Z,14.50
2018-11-07T14:47:16.703Z,14.50
2018-11-07T14:49:44.709Z,14.40
2018-11-07T14:52:12.786Z,14.40
2018-11-07T14:54:40.843Z,14.40
2018-11-07T14:57:08.897Z,14.40
2018-11-07T14:59:36.962Z,14.30
2018-11-07T15:02:05.666Z,14.30
2018-11-07T15:04:33.740Z,14.30
2018-11-07T15:07:01.794Z,14.30
2018-11-07T15:09:29.857Z,14.30
2018-11-07T15:11:57.989Z,14.20
2018-11-07T15:14:25.994Z,14.20
2018-11-07T15:16:54.041Z,14.20
2018-11-07T15:19:22.131Z,14.10
2018-11-07T15:21:50.178Z,14.10
2018-11-07T15:24:18.242Z,14.10
2018-11-07T15:26:46.403Z,14.10
2018-11-07T15:29:14.662Z,14.00
2018-11-07T15:31:42.758Z,14.00
2018-11-07T15:34:10.838Z,13.90
2018-11-07T15:36:38.910Z,13.90
2018-11-07T15:39:08.555Z,13.80
2018-11-07T15:41:36.654Z,13.80
2018-11-07T15:44:04.770Z,13.70
2018-11-07T15:46:33.033Z,13.70
2018-11-07T15:49:01.102Z,13.70
2018-11-07T15:51:35.704Z,13.60
2018-11-07T15:54:05.022Z,13.60
2018-11-07T15:56:33.571Z,13.60
2018-11-07T15:59:02.025Z,13.50
2018-11-07T16:01:30.301Z,13.50
2018-11-07T16:03:59.697Z,13.50
2018-11-07T16:06:28.270Z,13.40
2018-11-07T16:08:57.799Z,13.40
2018-11-07T16:11:27.002Z,13.40
2018-11-07T16:13:55.444Z,13.40
2018-11-07T16:16:23.468Z,13.40
2018-11-07T16:18:51.523Z,13.30
2018-11-07T16:21:19.579Z,13.30
2018-11-07T16:23:47.703Z,13.30
2018-11-07T16:26:15.729Z,13.30
2018-11-07T16:28:44.754Z,13.30
2018-11-07T16:31:12.703Z,13.30
2018-11-07T16:33:40.773Z,13.30
2018-11-07T16:36:08.989Z,13.20
2018-11-07T16:38:37.118Z,13.20
2018-11-07T16:41:05.392Z,13.20
2018-11-07T16:43:33.393Z,13.20
2018-11-07T16:46:01.522Z,13.20
2018-11-07T16:48:29.640Z,13.20
2018-11-07T16:50:57.658Z,13.10
2018-11-07T16:53:26.017Z,13.20
2018-11-07T16:55:54.062Z,13.10
2018-11-07T16:58:22.125Z,13.10
2018-11-07T17:00:50.174Z,13.10
2018-11-07T17:03:18.219Z,13.00
2018-11-07T17:05:46.423Z,13.00
2018-11-07T17:08:14.602Z,13.00
2018-11-07T17:10:42.685Z,13.00
2018-11-07T17:13:10.755Z,12.90
2018-11-07T17:15:38.908Z,12.90
2018-11-07T17:18:07.333Z,12.80
2018-11-07T17:20:35.433Z,12.80
2018-11-07T17:23:03.430Z,12.80
2018-11-07T17:25:31.506Z,12.80
2018-11-07T17:27:59.567Z,12.80
2018-11-07T17:30:27.629Z,12.70
2018-11-07T17:32:55.677Z,12.80
2018-11-07T17:35:23.762Z,12.80
2018-11-07T17:37:51.809Z,12.80
2018-11-07T17:40:21.321Z,12.80
2018-11-07T17:42:50.896Z,12.70
2018-11-07T17:45:20.129Z,12.70
2018-11-07T17:47:49.077Z,12.70
2018-11-07T17:50:19.059Z,12.70
2018-11-07T17:52:47.414Z,12.70
2018-11-07T17:55:16.416Z,12.70
2018-11-07T17:57:44.476Z,12.70
2018-11-07T18:00:14.685Z,12.70
2018-11-07T18:02:42.935Z,12.70
2018-11-07T18:05:11.637Z,12.60
2018-11-07T18:07:39.690Z,12.60
2018-11-07T18:10:09.852Z,12.70
2018-11-07T18:12:37.891Z,12.80
2018-11-07T18:15:07.105Z,12.80
2018-11-07T18:17:35.306Z,12.70
2018-11-07T18:20:03.503Z,12.70
2018-11-07T18:22:31.563Z,12.70
2018-11-07T18:24:59.777Z,12.60
2018-11-07T18:27:27.959Z,12.60
2018-11-07T18:29:56.808Z,12.60
2018-11-07T18:32:24.842Z,12.60
2018-11-07T18:34:52.909Z,12.50
2018-11-07T18:37:20.958Z,12.50
2018-11-07T18:39:49.018Z,12.60
2018-11-07T18:42:17.090Z,12.50
2018-11-07T18:44:45.147Z,12.40
2018-11-07T18:47:13.218Z,12.40
2018-11-07T18:49:41.275Z,12.40
2018-11-07T18:52:10.274Z,12.40
2018-11-07T18:54:38.345Z,12.30
2018-11-07T18:57:06.434Z,12.30
2018-11-07T18:59:35.074Z,12.20
2018-11-07T19:02:03.374Z,12.20
2018-11-07T19:04:31.454Z,12.20
2018-11-07T19:06:59.497Z,12.20
2018-11-07T19:09:27.587Z,12.10
2018-11-07T19:11:55.650Z,12.10
2018-11-07T19:14:23.706Z,12.30
2018-11-07T19:16:51.816Z,12.20
2018-11-07T19:19:19.857Z,12.20
2018-11-07T19:21:47.982Z,12.20
2018-11-07T19:24:16.033Z,12.10
2018-11-07T19:26:44.284Z,12.10
2018-11-07T19:29:12.276Z,12.00
2018-11-07T19:31:40.370Z,12.00
2018-11-07T19:34:08.462Z,12.00
2018-11-07T19:36:36.541Z,12.00
2018-11-07T19:39:07.308Z,12.10
2018-11-07T19:41:35.540Z,12.10
2018-11-07T19:44:03.658Z,12.00
2018-11-07T19:46:31.735Z,12.00
2018-11-07T19:48:59.773Z,12.00
2018-11-07T19:51:27.854Z,11.90
2018-11-07T19:53:55.968Z,11.90
2018-11-07T19:56:23.970Z,11.90
2018-11-07T19:58:52.666Z,12.00
2018-11-07T20:01:20.801Z,12.00
2018-11-07T20:03:48.862Z,11.90
2018-11-07T20:06:16.960Z,11.90
2018-11-07T20:08:45.009Z,11.90
2018-11-07T20:11:13.334Z,11.90
2018-11-07T20:13:41.409Z,12.00
2018-11-07T20:16:09.471Z,12.00
2018-11-07T20:18:38.134Z,12.00
2018-11-07T20:21:06.209Z,11.90
2018-11-07T20:23:34.261Z,12.00
2018-11-07T20:26:02.318Z,12.00
2018-11-07T20:28:30.409Z,11.90
2018-11-07T20:30:58.479Z,11.90
2018-11-07T20:33:26.773Z,11.90
2018-11-07T20:35:54.894Z,11.80
2018-11-07T20:38:22.882Z,11.70
2018-11-07T20:40:50.921Z,11.60
2018-11-07T20:43:18.990Z,11.60
2018-11-07T20:45:47.057Z,11.50
2018-11-07T20:48:15.106Z,11.50
2018-11-07T20:50:43.150Z,11.50
2018-11-07T20:53:11.264Z,11.50
2018-11-07T20:55:39.331Z,11.50
2018-11-07T20:58:07.399Z,11.40
2018-11-07T21:00:35.458Z,11.50
2018-11-07T21:03:03.531Z,11.50
2018-11-07T21:05:31.622Z,11.40
2018-11-07T21:07:59.681Z,11.40
2018-11-07T21:10:27.759Z,11.40
2018-11-07T21:12:55.815Z,11.50
2018-11-07T21:15:23.869Z,11.50
2018-11-07T21:17:52.454Z,11.50
2018-11-07T21:20:20.513Z,11.50
2018-11-07T21:22:48.605Z,11.60
2018-11-07T21:25:16.936Z,11.60
2018-11-07T21:27:44.990Z,11.60
2018-11-07T21:30:14.058Z,11.60
2018-11-07T21:32:42.509Z,11.50
2018-11-07T21:35:10.758Z,11.50
2018-11-07T21:37:38.778Z,11.50
2018-11-07T21:40:08.621Z,11.50
2018-11-07T21:42:36.738Z,11.50
2018-11-07T21:45:06.178Z,11.50
2018-11-07T21:47:34.238Z,11.50
2018-11-07T21:50:02.367Z,11.50
2018-11-07T21:52:30.436Z,11.60
2018-11-07T21:54:58.499Z,11.50
2018-11-07T21:57:26.665Z,11.50
2018-11-07T21:59:54.715Z,11.50
2018-11-07T22:02:22.778Z,11.50
2018-11-07T22:04:50.853Z,11.40
2018-11-07T22:07:18.901Z,11.40
2018-11-07T22:09:46.977Z,11.50
2018-11-07T22:12:15.043Z,11.50
2018-11-07T22:14:43.133Z,11.50
2018-11-07T22:17:11.265Z,11.40
2018-11-07T22:19:39.354Z,11.40
2018-11-07T22:22:07.401Z,11.30
2018-11-07T22:24:35.688Z,11.30
2018-11-07T22:27:04.450Z,11.30
2018-11-07T22:29:32.497Z,11.30
2018-11-07T22:32:00.561Z,11.30
2018-11-07T22:34:28.623Z,11.30
2018-11-07T22:36:56.691Z,11.30
2018-11-07T22:39:24.762Z,11.30
2018-11-07T22:41:52.817Z,11.20
2018-11-07T22:44:20.881Z,11.20
2018-11-07T22:46:48.999Z,11.20
2018-11-07T22:49:17.051Z,11.10
2018-11-07T22:51:45.605Z,11.10
2018-11-07T22:54:13.677Z,11.10
2018-11-07T22:56:41.742Z,11.10
2018-11-07T22:59:09.822Z,11.10
2018-11-07T23:01:40.919Z,11.10
2018-11-07T23:04:09.330Z,11.20
2018-11-07T23:06:38.240Z,11.30
2018-11-07T23:09:09.648Z,11.30
2018-11-07T23:11:40.554Z,11.30
2018-11-07T23:14:10.018Z,11.30
2018-11-07T23:16:38.122Z,11.40
2018-11-07T23:19:06.208Z,11.30
2018-11-07T23:21:34.297Z,11.30
2018-11-07T23:24:02.367Z,11.30
2018-11-07T23:26:30.452Z,11.20
2018-11-07T23:28:58.638Z,11.30
2018-11-07T23:31:26.832Z,11.30
2018-11-07T23:33:55.090Z,11.30
2018-11-07T23:36:23.143Z,11.30
2018-11-07T23:38:51.454Z,11.20
2018-11-07T23:41:19.578Z,11.20
2018-11-07T23:43:47.883Z,11.20
2018-11-07T23:46:15.939Z,11.20
2018-11-07T23:48:44.002Z,11.10
2018-11-07T23:51:12.052Z,11.20
2018-11-07T23:53:40.091Z,11.20
2018-11-07T23:56:08.134Z,11.10
2018-11-07T23:58:36.201Z,11.10
